TimeMST,TemperatureF,Dew PointF,Humidity,Sea Level PressureIn,VisibilityMPH,Wind Direction,Wind SpeedMPH,Gust SpeedMPH,PrecipitationIn,Events,Conditions,WindDirDegrees,DateUTC
12:56 AM,42.1,18.0,38,29.98,-9999.0,SSW,10.4,-,N/A,,Unknown,210,2013-11-08 07:56:00
1:56 AM,44.1,18.0,35,29.94,-9999.0,SW,15.0,-,N/A,,Unknown,220,2013-11-08 08:56:00
2:56 AM,41.0,17.1,38,29.93,-9999.0,WSW,10.4,-,N/A,,Unknown,240,2013-11-08 09:56:00
3:56 AM,41.0,17.1,38,29.92,-9999.0,SW,15.0,-,N/A,,Unknown,230,2013-11-08 10:56:00
4:56 AM,37.0,17.1,44,29.92,-9999.0,SW,11.5,-,N/A,,Unknown,230,2013-11-08 11:56:00
5:56 AM,39.9,16.0,38,29.90,-9999.0,SW,13.8,-,N/A,,Unknown,220,2013-11-08 12:56:00
6:56 AM,46.9,14.0,27,29.88,-9999.0,WSW,12.7,-,N/A,,Unknown,240,2013-11-08 13:56:00
7:56 AM,55.9,12.9,18,29.85,-9999.0,SW,13.8,20.7,N/A,,Unknown,230,2013-11-08 14:56:00
8:56 AM,61.0,12.9,15,29.85,-9999.0,WSW,8.1,17.3,N/A,,Unknown,240,2013-11-08 15:56:00
9:56 AM,72.0,9.0,9,29.79,-9999.0,WSW,11.5,23.0,N/A,,Unknown,240,2013-11-08 16:56:00
10:56 AM,75.0,8.1,8,29.76,-9999.0,WSW,12.7,21.9,N/A,,Unknown,240,2013-11-08 17:56:00
11:56 AM,78.1,8.1,7,29.73,-9999.0,WSW,12.7,19.6,N/A,,Unknown,250,2013-11-08 18:56:00
12:56 PM,80.1,8.1,6,29.70,-9999.0,WSW,8.1,-,N/A,,Unknown,240,2013-11-08 19:56:00
1:56 PM,80.1,8.1,6,29.68,-9999.0,South,10.4,-,N/A,,Unknown,190,2013-11-08 20:56:00
2:56 PM,79.0,9.0,7,29.68,-9999.0,SSW,6.9,-,N/A,,Unknown,210,2013-11-08 21:56:00
3:56 PM,75.0,10.9,9,29.69,-9999.0,West,10.4,16.1,N/A,,Unknown,260,2013-11-08 22:56:00
4:56 PM,57.9,12.0,16,29.77,-9999.0,SSW,4.6,-,N/A,,Unknown,210,2013-11-08 23:56:00
5:56 PM,57.0,18.0,22,29.78,-9999.0,WSW,8.1,-,N/A,,Unknown,240,2013-11-09 00:56:00
6:56 PM,52.0,18.0,26,29.79,-9999.0,WSW,10.4,-,N/A,,Unknown,240,2013-11-09 01:56:00
7:56 PM,53.1,18.0,25,29.78,-9999.0,West,8.1,-,N/A,,Unknown,280,2013-11-09 02:56:00
8:56 PM,42.1,19.0,40,29.81,-9999.0,WNW,10.4,-,N/A,,Unknown,300,2013-11-09 03:56:00
9:56 PM,43.0,23.0,45,29.80,-9999.0,NW,10.4,-,N/A,,Unknown,310,2013-11-09 04:56:00
10:56 PM,43.0,24.1,47,29.81,-9999.0,WNW,11.5,-,N/A,,Unknown,300,2013-11-09 05:56:00
11:56 PM,42.1,25.0,51,29.82,-9999.0,WNW,9.2,-,N/A,,Unknown,300,2013-11-09 06:56:00